Terminal Aerodrome Forecast
Issued by NWS New Orleans/Baton Rouge, LA

Home | Current Version | Previous Version | Text Only | Print | Product List | Glossary On
Versions: 1 2 3 4 5 6 7 8 9 10 11 12 13 14 15 16 17 18 19 20 21 22 23 24 25 26 27
000
FTUS44 KLIX 192300
TAFNEW
TAF
KNEW 192332Z 2000/2024 10012KT P6SM SCT030 SCT060
     FM200300 09011KT P6SM SCT250
     FM201400 06013KT P6SM SCT250
     FM201700 07014KT P6SM SCT045=

USA.gov is the U.S. government's official web portal to all federal, state and local government web resources and services.